sensor_id;sensor_type;location;lat;lon;timestamp;temperature;humidity
36924;DHT22;22841;50.252;18.688;2023-04-03T00:00:25;2.50;99.90
36924;DHT22;22841;50.252;18.688;2023-04-03T00:02:51;2.50;99.90
36924;DHT22;22841;50.252;18.688;2023-04-03T00:05:17;2.50;99.90
36924;DHT22;22841;50.252;18.688;2023-04-03T00:07:43;2.50;99.90
36924;DHT22;22841;50.252;18.688;2023-04-03T00:10:09;2.40;99.90
36924;DHT22;22841;50.252;18.688;2023-04-03T00:12:35;2.40;99.90
36924;DHT22;22841;50.252;18.688;2023-04-03T00:15:02;2.40;99.90
36924;DHT22;22841;50.252;18.688;2023-04-03T00:17:28;2.40;99.90
36924;DHT22;22841;50.252;18.688;2023-04-03T00:19:54;2.40;99.90
36924;DHT22;22841;50.252;18.688;2023-04-03T00:22:20;2.40;99.90
36924;DHT22;22841;50.252;18.688;2023-04-03T00:24:46;2.40;99.90
36924;DHT22;22841;50.252;18.688;2023-04-03T00:27:12;2.50;99.90
36924;DHT22;22841;50.252;18.688;2023-04-03T00:29:38;2.50;99.90
36924;DHT22;22841;50.252;18.688;2023-04-03T00:32:04;2.50;99.90
36924;DHT22;22841;50.252;18.688;2023-04-03T00:34:31;2.40;99.90
36924;DHT22;22841;50.252;18.688;2023-04-03T00:36:57;2.40;99.90
36924;DHT22;22841;50.252;18.688;2023-04-03T00:39:23;2.40;99.90
36924;DHT22;22841;50.252;18.688;2023-04-03T00:41:49;2.40;99.90
36924;DHT22;22841;50.252;18.688;2023-04-03T00:47:08;2.40;99.90
36924;DHT22;22841;50.252;18.688;2023-04-03T00:49:37;2.40;99.90
36924;DHT22;22841;50.252;18.688;2023-04-03T00:52:06;2.40;99.90
36924;DHT22;22841;50.252;18.688;2023-04-03T00:54:35;2.40;99.90
36924;DHT22;22841;50.252;18.688;2023-04-03T00:57:03;2.50;99.90
36924;DHT22;22841;50.252;18.688;2023-04-03T00:59:34;2.50;99.90
36924;DHT22;22841;50.252;18.688;2023-04-03T01:02:02;2.50;99.90
36924;DHT22;22841;50.252;18.688;2023-04-03T01:07:04;2.50;99.90
36924;DHT22;22841;50.252;18.688;2023-04-03T01:09:33;2.50;99.90
36924;DHT22;22841;50.252;18.688;2023-04-03T01:14:43;2.50;99.90
36924;DHT22;22841;50.252;18.688;2023-04-03T01:17:48;2.50;99.90
36924;DHT22;22841;50.252;18.688;2023-04-03T01:25:48;2.50;99.90
36924;DHT22;22841;50.252;18.688;2023-04-03T01:28:36;2.50;99.90
36924;DHT22;22841;50.252;18.688;2023-04-03T01:31:06;2.40;99.90
36924;DHT22;22841;50.252;18.688;2023-04-03T01:33:35;2.50;99.90
36924;DHT22;22841;50.252;18.688;2023-04-03T01:36:03;2.50;99.90
36924;DHT22;22841;50.252;18.688;2023-04-03T01:38:30;2.50;99.90
36924;DHT22;22841;50.252;18.688;2023-04-03T01:40:57;2.50;99.90
36924;DHT22;22841;50.252;18.688;2023-04-03T01:43:23;2.50;99.90
36924;DHT22;22841;50.252;18.688;2023-04-03T01:45:49;2.40;99.90
36924;DHT22;22841;50.252;18.688;2023-04-03T01:48:16;2.40;99.90
36924;DHT22;22841;50.252;18.688;2023-04-03T01:50:42;2.40;99.90
36924;DHT22;22841;50.252;18.688;2023-04-03T01:53:08;2.40;99.90
36924;DHT22;22841;50.252;18.688;2023-04-03T01:55:34;2.40;99.90
36924;DHT22;22841;50.252;18.688;2023-04-03T01:58:00;2.40;99.90
36924;DHT22;22841;50.252;18.688;2023-04-03T02:00:26;2.40;99.90
36924;DHT22;22841;50.252;18.688;2023-04-03T02:02:53;2.40;99.90
36924;DHT22;22841;50.252;18.688;2023-04-03T02:05:19;2.30;99.90
36924;DHT22;22841;50.252;18.688;2023-04-03T02:07:45;2.30;99.90
36924;DHT22;22841;50.252;18.688;2023-04-03T02:10:11;2.20;99.90
36924;DHT22;22841;50.252;18.688;2023-04-03T02:12:38;2.20;99.90
36924;DHT22;22841;50.252;18.688;2023-04-03T02:15:04;2.20;99.90
36924;DHT22;22841;50.252;18.688;2023-04-03T02:17:30;2.20;99.90
36924;DHT22;22841;50.252;18.688;2023-04-03T02:19:58;2.20;99.90
36924;DHT22;22841;50.252;18.688;2023-04-03T02:22:24;2.20;99.90
36924;DHT22;22841;50.252;18.688;2023-04-03T02:24:50;2.10;99.90
36924;DHT22;22841;50.252;18.688;2023-04-03T02:27:17;2.20;99.90
36924;DHT22;22841;50.252;18.688;2023-04-03T02:29:43;2.10;99.90
36924;DHT22;22841;50.252;18.688;2023-04-03T02:32:09;2.00;99.90
36924;DHT22;22841;50.252;18.688;2023-04-03T02:34:35;2.10;99.90
36924;DHT22;22841;50.252;18.688;2023-04-03T02:37:01;2.10;99.90
36924;DHT22;22841;50.252;18.688;2023-04-03T02:39:29;2.10;99.90
36924;DHT22;22841;50.252;18.688;2023-04-03T02:41:55;2.00;99.90
36924;DHT22;22841;50.252;18.688;2023-04-03T02:44:21;2.10;99.90
36924;DHT22;22841;50.252;18.688;2023-04-03T02:46:49;2.00;99.90
36924;DHT22;22841;50.252;18.688;2023-04-03T02:49:15;1.90;99.90
36924;DHT22;22841;50.252;18.688;2023-04-03T02:51:41;1.90;99.90
36924;DHT22;22841;50.252;18.688;2023-04-03T02:54:08;1.80;99.90
36924;DHT22;22841;50.252;18.688;2023-04-03T02:56:34;1.80;99.90
36924;DHT22;22841;50.252;18.688;2023-04-03T02:59:00;1.80;99.90
36924;DHT22;22841;50.252;18.688;2023-04-03T03:01:26;1.80;99.90
36924;DHT22;22841;50.252;18.688;2023-04-03T03:03:57;1.70;99.90
36924;DHT22;22841;50.252;18.688;2023-04-03T03:06:24;1.70;99.90
36924;DHT22;22841;50.252;18.688;2023-04-03T03:08:50;1.70;99.90
36924;DHT22;22841;50.252;18.688;2023-04-03T03:11:16;1.60;99.90
36924;DHT22;22841;50.252;18.688;2023-04-03T03:13:42;1.50;99.90
36924;DHT22;22841;50.252;18.688;2023-04-03T03:16:09;1.50;99.90
36924;DHT22;22841;50.252;18.688;2023-04-03T03:18:35;1.50;99.90
36924;DHT22;22841;50.252;18.688;2023-04-03T03:21:02;1.50;99.90
36924;DHT22;22841;50.252;18.688;2023-04-03T03:23:30;1.40;99.90
36924;DHT22;22841;50.252;18.688;2023-04-03T03:26:00;1.30;99.90
36924;DHT22;22841;50.252;18.688;2023-04-03T03:28:26;1.30;99.90
36924;DHT22;22841;50.252;18.688;2023-04-03T03:30:52;1.20;99.90
36924;DHT22;22841;50.252;18.688;2023-04-03T03:33:19;1.20;99.90
36924;DHT22;22841;50.252;18.688;2023-04-03T03:35:45;1.30;99.90
36924;DHT22;22841;50.252;18.688;2023-04-03T03:38:11;1.20;99.90
36924;DHT22;22841;50.252;18.688;2023-04-03T03:40:38;1.20;99.90
36924;DHT22;22841;50.252;18.688;2023-04-03T03:43:04;1.20;99.90
36924;DHT22;22841;50.252;18.688;2023-04-03T03:45:30;1.20;99.90
36924;DHT22;22841;50.252;18.688;2023-04-03T03:47:56;1.10;99.90
36924;DHT22;22841;50.252;18.688;2023-04-03T03:50:23;1.10;99.90
36924;DHT22;22841;50.252;18.688;2023-04-03T03:52:49;1.00;99.90
36924;DHT22;22841;50.252;18.688;2023-04-03T03:55:15;1.00;99.90
36924;DHT22;22841;50.252;18.688;2023-04-03T03:57:41;0.80;99.90
36924;DHT22;22841;50.252;18.688;2023-04-03T04:00:07;0.90;99.90
36924;DHT22;22841;50.252;18.688;2023-04-03T04:02:34;0.90;99.90
36924;DHT22;22841;50.252;18.688;2023-04-03T04:05:00;0.90;99.90
36924;DHT22;22841;50.252;18.688;2023-04-03T04:07:26;0.80;99.90
36924;DHT22;22841;50.252;18.688;2023-04-03T04:09:54;0.70;99.90
36924;DHT22;22841;50.252;18.688;2023-04-03T04:12:20;0.70;99.90
36924;DHT22;22841;50.252;18.688;2023-04-03T04:14:47;0.70;99.90
36924;DHT22;22841;50.252;18.688;2023-04-03T04:17:13;0.70;99.90
36924;DHT22;22841;50.252;18.688;2023-04-03T04:19:40;0.70;99.90
36924;DHT22;22841;50.252;18.688;2023-04-03T04:22:06;0.70;99.90
36924;DHT22;22841;50.252;18.688;2023-04-03T04:24:32;0.60;99.90
36924;DHT22;22841;50.252;18.688;2023-04-03T04:26:58;0.50;99.90
36924;DHT22;22841;50.252;18.688;2023-04-03T04:29:25;0.60;99.90
36924;DHT22;22841;50.252;18.688;2023-04-03T04:31:51;0.60;99.90
36924;DHT22;22841;50.252;18.688;2023-04-03T04:34:17;0.60;99.90
36924;DHT22;22841;50.252;18.688;2023-04-03T04:36:43;0.50;99.90
36924;DHT22;22841;50.252;18.688;2023-04-03T04:39:09;0.40;99.90
36924;DHT22;22841;50.252;18.688;2023-04-03T04:41:35;0.50;99.90
36924;DHT22;22841;50.252;18.688;2023-04-03T04:44:01;0.60;99.90
36924;DHT22;22841;50.252;18.688;2023-04-03T04:46:27;0.60;99.90
36924;DHT22;22841;50.252;18.688;2023-04-03T04:48:53;0.50;99.90
36924;DHT22;22841;50.252;18.688;2023-04-03T04:51:19;0.50;99.90
36924;DHT22;22841;50.252;18.688;2023-04-03T04:53:45;0.40;99.90
36924;DHT22;22841;50.252;18.688;2023-04-03T04:56:12;0.40;99.90
36924;DHT22;22841;50.252;18.688;2023-04-03T04:58:38;0.40;99.90
36924;DHT22;22841;50.252;18.688;2023-04-03T05:01:06;0.40;99.90
36924;DHT22;22841;50.252;18.688;2023-04-03T05:03:33;0.30;99.90
36924;DHT22;22841;50.252;18.688;2023-04-03T05:05:59;0.30;99.90
36924;DHT22;22841;50.252;18.688;2023-04-03T05:08:25;0.30;99.90
36924;DHT22;22841;50.252;18.688;2023-04-03T05:10:51;0.40;99.90
36924;DHT22;22841;50.252;18.688;2023-04-03T05:13:19;0.30;99.90
36924;DHT22;22841;50.252;18.688;2023-04-03T05:15:46;0.30;99.90
36924;DHT22;22841;50.252;18.688;2023-04-03T05:18:12;0.30;99.90
36924;DHT22;22841;50.252;18.688;2023-04-03T05:20:39;0.40;99.90
36924;DHT22;22841;50.252;18.688;2023-04-03T05:23:05;0.30;99.90
36924;DHT22;22841;50.252;18.688;2023-04-03T05:25:31;0.30;99.90
36924;DHT22;22841;50.252;18.688;2023-04-03T05:27:57;0.30;99.90
36924;DHT22;22841;50.252;18.688;2023-04-03T05:30:24;0.30;99.90
36924;DHT22;22841;50.252;18.688;2023-04-03T05:32:50;0.20;99.90
36924;DHT22;22841;50.252;18.688;2023-04-03T05:35:16;0.20;99.90
36924;DHT22;22841;50.252;18.688;2023-04-03T05:37:42;0.20;99.90
36924;DHT22;22841;50.252;18.688;2023-04-03T05:40:09;0.10;99.90
36924;DHT22;22841;50.252;18.688;2023-04-03T05:42:35;0.10;99.90
36924;DHT22;22841;50.252;18.688;2023-04-03T05:45:01;0.20;99.90
36924;DHT22;22841;50.252;18.688;2023-04-03T05:47:27;0.20;99.90
36924;DHT22;22841;50.252;18.688;2023-04-03T05:49:53;0.10;99.90
36924;DHT22;22841;50.252;18.688;2023-04-03T05:52:29;0.10;99.90
36924;DHT22;22841;50.252;18.688;2023-04-03T05:54:56;0.10;99.90
36924;DHT22;22841;50.252;18.688;2023-04-03T05:57:22;0.10;99.90
36924;DHT22;22841;50.252;18.688;2023-04-03T05:59:49;0.10;99.90
36924;DHT22;22841;50.252;18.688;2023-04-03T06:02:17;0.20;99.90
36924;DHT22;22841;50.252;18.688;2023-04-03T06:04:44;0.30;99.90
36924;DHT22;22841;50.252;18.688;2023-04-03T06:07:13;0.40;99.90
36924;DHT22;22841;50.252;18.688;2023-04-03T06:09:39;0.50;99.90
36924;DHT22;22841;50.252;18.688;2023-04-03T06:12:08;0.40;99.90
36924;DHT22;22841;50.252;18.688;2023-04-03T06:14:34;0.40;99.90
36924;DHT22;22841;50.252;18.688;2023-04-03T06:17:01;0.50;99.90
36924;DHT22;22841;50.252;18.688;2023-04-03T06:19:28;0.50;99.90
36924;DHT22;22841;50.252;18.688;2023-04-03T06:21:54;0.50;99.90
36924;DHT22;22841;50.252;18.688;2023-04-03T06:24:21;0.50;99.90
36924;DHT22;22841;50.252;18.688;2023-04-03T06:26:49;0.50;99.90
36924;DHT22;22841;50.252;18.688;2023-04-03T06:29:17;0.50;99.90
36924;DHT22;22841;50.252;18.688;2023-04-03T06:31:44;0.50;99.90
36924;DHT22;22841;50.252;18.688;2023-04-03T06:34:10;0.60;99.90
36924;DHT22;22841;50.252;18.688;2023-04-03T06:36:37;0.50;99.90
36924;DHT22;22841;50.252;18.688;2023-04-03T06:39:04;0.50;99.90
36924;DHT22;22841;50.252;18.688;2023-04-03T06:41:30;0.60;99.90
36924;DHT22;22841;50.252;18.688;2023-04-03T06:43:57;0.50;99.90
36924;DHT22;22841;50.252;18.688;2023-04-03T06:46:26;0.60;99.90
36924;DHT22;22841;50.252;18.688;2023-04-03T06:48:52;0.60;99.90
36924;DHT22;22841;50.252;18.688;2023-04-03T06:51:26;0.70;99.90
36924;DHT22;22841;50.252;18.688;2023-04-03T06:53:56;0.70;99.90
36924;DHT22;22841;50.252;18.688;2023-04-03T06:56:23;0.70;99.90
36924;DHT22;22841;50.252;18.688;2023-04-03T06:58:49;0.70;99.90
36924;DHT22;22841;50.252;18.688;2023-04-03T07:01:18;0.80;99.90
36924;DHT22;22841;50.252;18.688;2023-04-03T07:03:48;0.90;99.90
36924;DHT22;22841;50.252;18.688;2023-04-03T07:06:15;1.00;99.90
36924;DHT22;22841;50.252;18.688;2023-04-03T07:08:41;1.10;99.90
36924;DHT22;22841;50.252;18.688;2023-04-03T07:11:08;1.20;99.90
36924;DHT22;22841;50.252;18.688;2023-04-03T07:13:34;1.20;99.90
36924;DHT22;22841;50.252;18.688;2023-04-03T07:16:01;1.20;99.90
36924;DHT22;22841;50.252;18.688;2023-04-03T07:18:29;1.30;99.90
36924;DHT22;22841;50.252;18.688;2023-04-03T07:20:55;1.30;99.90
36924;DHT22;22841;50.252;18.688;2023-04-03T07:23:22;1.50;99.90
36924;DHT22;22841;50.252;18.688;2023-04-03T07:25:50;1.60;99.90
36924;DHT22;22841;50.252;18.688;2023-04-03T07:28:18;1.60;99.90
36924;DHT22;22841;50.252;18.688;2023-04-03T07:30:45;1.70;99.90
36924;DHT22;22841;50.252;18.688;2023-04-03T07:33:13;1.80;99.90
36924;DHT22;22841;50.252;18.688;2023-04-03T07:35:40;2.00;99.90
36924;DHT22;22841;50.252;18.688;2023-04-03T07:38:06;2.10;99.90
36924;DHT22;22841;50.252;18.688;2023-04-03T07:40:33;2.20;99.90
36924;DHT22;22841;50.252;18.688;2023-04-03T07:42:59;2.40;99.90
36924;DHT22;22841;50.252;18.688;2023-04-03T07:45:26;2.40;99.90
36924;DHT22;22841;50.252;18.688;2023-04-03T07:47:52;2.40;99.90
36924;DHT22;22841;50.252;18.688;2023-04-03T07:50:18;2.50;99.90
36924;DHT22;22841;50.252;18.688;2023-04-03T07:52:45;2.40;99.90
36924;DHT22;22841;50.252;18.688;2023-04-03T07:55:12;2.50;99.90
36924;DHT22;22841;50.252;18.688;2023-04-03T07:57:38;2.50;99.90
36924;DHT22;22841;50.252;18.688;2023-04-03T08:00:05;2.50;99.90
36924;DHT22;22841;50.252;18.688;2023-04-03T08:02:31;2.60;99.90
36924;DHT22;22841;50.252;18.688;2023-04-03T08:04:58;2.70;99.90
36924;DHT22;22841;50.252;18.688;2023-04-03T08:07:25;2.70;99.90
36924;DHT22;22841;50.252;18.688;2023-04-03T08:09:51;2.60;99.90
36924;DHT22;22841;50.252;18.688;2023-04-03T08:12:17;2.40;99.90
36924;DHT22;22841;50.252;18.688;2023-04-03T08:14:43;2.30;99.90
36924;DHT22;22841;50.252;18.688;2023-04-03T08:17:10;2.30;99.90
36924;DHT22;22841;50.252;18.688;2023-04-03T08:19:38;2.20;99.90
36924;DHT22;22841;50.252;18.688;2023-04-03T08:22:05;2.10;99.90
36924;DHT22;22841;50.252;18.688;2023-04-03T08:24:32;2.20;99.90
36924;DHT22;22841;50.252;18.688;2023-04-03T08:26:59;2.20;99.90
36924;DHT22;22841;50.252;18.688;2023-04-03T08:29:25;2.40;99.90
36924;DHT22;22841;50.252;18.688;2023-04-03T08:31:51;2.40;99.90
36924;DHT22;22841;50.252;18.688;2023-04-03T08:34:18;2.50;99.90
36924;DHT22;22841;50.252;18.688;2023-04-03T08:36:44;2.70;99.90
36924;DHT22;22841;50.252;18.688;2023-04-03T08:39:11;2.90;99.90
36924;DHT22;22841;50.252;18.688;2023-04-03T08:41:41;3.10;99.90
36924;DHT22;22841;50.252;18.688;2023-04-03T08:44:47;3.20;99.90
36924;DHT22;22841;50.252;18.688;2023-04-03T08:50:01;3.30;99.90
36924;DHT22;22841;50.252;18.688;2023-04-03T08:52:38;3.10;99.90
36924;DHT22;22841;50.252;18.688;2023-04-03T08:55:14;3.00;99.90
36924;DHT22;22841;50.252;18.688;2023-04-03T08:57:44;3.00;99.90
36924;DHT22;22841;50.252;18.688;2023-04-03T09:00:18;3.10;99.90
36924;DHT22;22841;50.252;18.688;2023-04-03T09:02:50;3.20;99.90
36924;DHT22;22841;50.252;18.688;2023-04-03T09:08:25;3.40;99.90
36924;DHT22;22841;50.252;18.688;2023-04-03T09:10:59;3.60;99.90
36924;DHT22;22841;50.252;18.688;2023-04-03T09:13:35;3.70;99.90
36924;DHT22;22841;50.252;18.688;2023-04-03T09:16:18;3.90;99.90
36924;DHT22;22841;50.252;18.688;2023-04-03T09:18:51;4.10;99.90
36924;DHT22;22841;50.252;18.688;2023-04-03T09:21:31;4.10;99.90
36924;DHT22;22841;50.252;18.688;2023-04-03T09:24:01;4.10;99.90
36924;DHT22;22841;50.252;18.688;2023-04-03T09:29:19;4.10;99.90
36924;DHT22;22841;50.252;18.688;2023-04-03T09:31:49;4.10;99.90
36924;DHT22;22841;50.252;18.688;2023-04-03T09:36:48;4.30;99.90
36924;DHT22;22841;50.252;18.688;2023-04-03T09:39:17;4.40;99.90
36924;DHT22;22841;50.252;18.688;2023-04-03T09:44:28;4.40;99.90
36924;DHT22;22841;50.252;18.688;2023-04-03T09:46:54;4.40;99.90
36924;DHT22;22841;50.252;18.688;2023-04-03T09:49:21;4.50;99.90
36924;DHT22;22841;50.252;18.688;2023-04-03T09:51:47;4.50;99.90
36924;DHT22;22841;50.252;18.688;2023-04-03T09:54:33;4.60;99.90
36924;DHT22;22841;50.252;18.688;2023-04-03T09:57:11;4.50;99.90
36924;DHT22;22841;50.252;18.688;2023-04-03T09:59:46;4.60;99.90
36924;DHT22;22841;50.252;18.688;2023-04-03T10:04:47;4.50;99.90
36924;DHT22;22841;50.252;18.688;2023-04-03T10:07:27;4.50;99.90
36924;DHT22;22841;50.252;18.688;2023-04-03T10:10:17;4.60;99.90
36924;DHT22;22841;50.252;18.688;2023-04-03T10:12:45;4.70;99.90
36924;DHT22;22841;50.252;18.688;2023-04-03T10:15:14;4.80;99.90
36924;DHT22;22841;50.252;18.688;2023-04-03T10:18:00;4.70;99.90
36924;DHT22;22841;50.252;18.688;2023-04-03T10:26:15;4.80;99.90
36924;DHT22;22841;50.252;18.688;2023-04-03T10:29:04;4.80;99.90
36924;DHT22;22841;50.252;18.688;2023-04-03T10:34:47;4.60;99.90
36924;DHT22;22841;50.252;18.688;2023-04-03T10:37:27;4.50;99.90
36924;DHT22;22841;50.252;18.688;2023-04-03T10:40:02;4.50;99.90
36924;DHT22;22841;50.252;18.688;2023-04-03T10:47:58;4.70;99.90
36924;DHT22;22841;50.252;18.688;2023-04-03T10:51:10;4.70;99.90
36924;DHT22;22841;50.252;18.688;2023-04-03T10:56:47;4.60;99.90
36924;DHT22;22841;50.252;18.688;2023-04-03T10:59:25;4.60;99.90
36924;DHT22;22841;50.252;18.688;2023-04-03T11:01:57;4.70;99.90
36924;DHT22;22841;50.252;18.688;2023-04-03T11:04:27;4.60;99.90
36924;DHT22;22841;50.252;18.688;2023-04-03T11:07:00;4.70;99.90
36924;DHT22;22841;50.252;18.688;2023-04-03T11:09:35;4.80;99.90
36924;DHT22;22841;50.252;18.688;2023-04-03T11:12:14;4.90;99.90
36924;DHT22;22841;50.252;18.688;2023-04-03T11:14:42;5.00;99.90
36924;DHT22;22841;50.252;18.688;2023-04-03T11:20:01;5.00;99.90
36924;DHT22;22841;50.252;18.688;2023-04-03T11:22:42;4.90;99.90
36924;DHT22;22841;50.252;18.688;2023-04-03T11:27:45;5.00;99.90
36924;DHT22;22841;50.252;18.688;2023-04-03T11:30:23;5.10;99.90
36924;DHT22;22841;50.252;18.688;2023-04-03T11:35:46;5.10;99.90
36924;DHT22;22841;50.252;18.688;2023-04-03T11:38:27;4.90;99.90
36924;DHT22;22841;50.252;18.688;2023-04-03T11:40:56;4.90;96.20
36924;DHT22;22841;50.252;18.688;2023-04-03T11:43:31;4.90;99.90
36924;DHT22;22841;50.252;18.688;2023-04-03T11:46:05;4.90;99.50
36924;DHT22;22841;50.252;18.688;2023-04-03T11:51:37;5.30;99.90
36924;DHT22;22841;50.252;18.688;2023-04-03T11:53:48;5.30;99.90
36924;DHT22;22841;50.252;18.688;2023-04-03T12:01:45;4.90;99.90
36924;DHT22;22841;50.252;18.688;2023-04-03T12:04:13;4.80;99.90
36924;DHT22;22841;50.252;18.688;2023-04-03T12:09:34;5.20;99.90
36924;DHT22;22841;50.252;18.688;2023-04-03T12:12:25;5.20;99.90
36924;DHT22;22841;50.252;18.688;2023-04-03T12:14:47;5.20;99.90
36924;DHT22;22841;50.252;18.688;2023-04-03T12:17:27;5.40;99.90
36924;DHT22;22841;50.252;18.688;2023-04-03T12:19:55;5.60;99.90
36924;DHT22;22841;50.252;18.688;2023-04-03T12:22:21;5.50;99.00
36924;DHT22;22841;50.252;18.688;2023-04-03T12:24:50;5.30;97.40
36924;DHT22;22841;50.252;18.688;2023-04-03T12:35:37;5.80;99.90
36924;DHT22;22841;50.252;18.688;2023-04-03T12:40:53;5.70;99.90
36924;DHT22;22841;50.252;18.688;2023-04-03T12:43:34;5.50;99.70
36924;DHT22;22841;50.252;18.688;2023-04-03T12:46:14;5.20;99.90
36924;DHT22;22841;50.252;18.688;2023-04-03T12:51:15;5.30;99.90
36924;DHT22;22841;50.252;18.688;2023-04-03T12:53:43;5.60;99.90
36924;DHT22;22841;50.252;18.688;2023-04-03T12:56:31;5.80;99.90
36924;DHT22;22841;50.252;18.688;2023-04-03T12:59:33;6.00;99.90
36924;DHT22;22841;50.252;18.688;2023-04-03T13:02:00;5.70;98.60
36924;DHT22;22841;50.252;18.688;2023-04-03T13:04:28;5.50;99.40
36924;DHT22;22841;50.252;18.688;2023-04-03T13:06:54;5.30;98.20
36924;DHT22;22841;50.252;18.688;2023-04-03T13:09:29;5.20;98.30
36924;DHT22;22841;50.252;18.688;2023-04-03T13:12:02;5.30;99.40
36924;DHT22;22841;50.252;18.688;2023-04-03T13:14:29;5.50;97.10
36924;DHT22;22841;50.252;18.688;2023-04-03T13:19:25;5.90;99.80
36924;DHT22;22841;50.252;18.688;2023-04-03T13:21:59;5.90;98.90
36924;DHT22;22841;50.252;18.688;2023-04-03T13:24:27;5.70;98.30
36924;DHT22;22841;50.252;18.688;2023-04-03T13:26:56;5.50;98.40
36924;DHT22;22841;50.252;18.688;2023-04-03T13:29:29;5.30;98.20
36924;DHT22;22841;50.252;18.688;2023-04-03T13:31:56;5.20;97.10
36924;DHT22;22841;50.252;18.688;2023-04-03T13:34:26;5.20;97.80
36924;DHT22;22841;50.252;18.688;2023-04-03T13:39:38;5.50;99.90
36924;DHT22;22841;50.252;18.688;2023-04-03T13:42:25;5.40;96.90
36924;DHT22;22841;50.252;18.688;2023-04-03T13:47:40;5.20;98.60
36924;DHT22;22841;50.252;18.688;2023-04-03T13:50:16;5.30;98.00
36924;DHT22;22841;50.252;18.688;2023-04-03T13:52:47;5.20;94.10
36924;DHT22;22841;50.252;18.688;2023-04-03T13:55:22;5.10;97.50
36924;DHT22;22841;50.252;18.688;2023-04-03T14:00:46;5.40;99.00
36924;DHT22;22841;50.252;18.688;2023-04-03T14:03:28;5.70;97.30
36924;DHT22;22841;50.252;18.688;2023-04-03T14:05:55;5.90;95.30
36924;DHT22;22841;50.252;18.688;2023-04-03T14:08:21;6.00;93.40
36924;DHT22;22841;50.252;18.688;2023-04-03T14:10:48;5.70;99.90
36924;DHT22;22841;50.252;18.688;2023-04-03T14:13:17;5.60;98.00
36924;DHT22;22841;50.252;18.688;2023-04-03T14:15:46;5.30;96.30
36924;DHT22;22841;50.252;18.688;2023-04-03T14:18:17;5.30;98.10
36924;DHT22;22841;50.252;18.688;2023-04-03T14:20:48;5.10;97.00
36924;DHT22;22841;50.252;18.688;2023-04-03T14:23:14;5.00;95.60
36924;DHT22;22841;50.252;18.688;2023-04-03T14:25:41;5.00;98.30
36924;DHT22;22841;50.252;18.688;2023-04-03T14:28:19;5.20;99.90
36924;DHT22;22841;50.252;18.688;2023-04-03T14:30:49;5.50;99.90
36924;DHT22;22841;50.252;18.688;2023-04-03T14:33:19;5.40;95.10
36924;DHT22;22841;50.252;18.688;2023-04-03T14:35:46;5.30;96.50
36924;DHT22;22841;50.252;18.688;2023-04-03T14:38:26;5.10;99.00
36924;DHT22;22841;50.252;18.688;2023-04-03T14:40:54;5.00;97.30
36924;DHT22;22841;50.252;18.688;2023-04-03T14:43:21;5.00;94.90
36924;DHT22;22841;50.252;18.688;2023-04-03T14:45:48;4.90;98.90
36924;DHT22;22841;50.252;18.688;2023-04-03T14:48:23;4.90;99.70
36924;DHT22;22841;50.252;18.688;2023-04-03T14:50:51;4.90;99.50
36924;DHT22;22841;50.252;18.688;2023-04-03T14:53:18;5.00;98.10
36924;DHT22;22841;50.252;18.688;2023-04-03T14:55:48;4.80;98.70
36924;DHT22;22841;50.252;18.688;2023-04-03T14:58:17;4.70;99.90
36924;DHT22;22841;50.252;18.688;2023-04-03T15:00:44;4.60;99.90
36924;DHT22;22841;50.252;18.688;2023-04-03T15:03:14;4.60;99.90
36924;DHT22;22841;50.252;18.688;2023-04-03T15:05:42;4.50;99.90
36924;DHT22;22841;50.252;18.688;2023-04-03T15:08:21;4.40;99.90
36924;DHT22;22841;50.252;18.688;2023-04-03T15:10:48;4.50;99.90
36924;DHT22;22841;50.252;18.688;2023-04-03T15:13:14;4.40;99.90
36924;DHT22;22841;50.252;18.688;2023-04-03T15:15:41;4.50;99.90
36924;DHT22;22841;50.252;18.688;2023-04-03T15:18:12;4.50;99.90
36924;DHT22;22841;50.252;18.688;2023-04-03T15:20:38;4.50;99.90
36924;DHT22;22841;50.252;18.688;2023-04-03T15:23:04;4.50;99.90
36924;DHT22;22841;50.252;18.688;2023-04-03T15:25:32;4.40;99.90
36924;DHT22;22841;50.252;18.688;2023-04-03T15:27:59;4.40;99.90
36924;DHT22;22841;50.252;18.688;2023-04-03T15:30:25;4.40;99.90
36924;DHT22;22841;50.252;18.688;2023-04-03T15:32:51;4.40;99.90
36924;DHT22;22841;50.252;18.688;2023-04-03T15:35:19;4.40;99.90
36924;DHT22;22841;50.252;18.688;2023-04-03T15:37:45;4.30;99.90
36924;DHT22;22841;50.252;18.688;2023-04-03T15:40:12;4.30;99.90
36924;DHT22;22841;50.252;18.688;2023-04-03T15:42:38;4.20;99.90
36924;DHT22;22841;50.252;18.688;2023-04-03T15:45:05;4.20;99.90
36924;DHT22;22841;50.252;18.688;2023-04-03T15:47:31;4.20;99.90
36924;DHT22;22841;50.252;18.688;2023-04-03T15:49:58;4.20;99.90
36924;DHT22;22841;50.252;18.688;2023-04-03T15:52:24;4.20;99.90
36924;DHT22;22841;50.252;18.688;2023-04-03T15:54:50;4.10;99.90
36924;DHT22;22841;50.252;18.688;2023-04-03T15:57:16;4.10;99.90
36924;DHT22;22841;50.252;18.688;2023-04-03T15:59:42;4.10;99.90
36924;DHT22;22841;50.252;18.688;2023-04-03T16:02:10;4.00;99.90
36924;DHT22;22841;50.252;18.688;2023-04-03T16:04:38;4.00;99.90
36924;DHT22;22841;50.252;18.688;2023-04-03T16:07:04;4.00;99.90
36924;DHT22;22841;50.252;18.688;2023-04-03T16:09:32;3.90;99.90
36924;DHT22;22841;50.252;18.688;2023-04-03T16:12:00;3.90;99.90
36924;DHT22;22841;50.252;18.688;2023-04-03T16:14:26;3.90;99.90
36924;DHT22;22841;50.252;18.688;2023-04-03T16:16:53;3.80;99.90
36924;DHT22;22841;50.252;18.688;2023-04-03T16:19:20;3.80;99.90
36924;DHT22;22841;50.252;18.688;2023-04-03T16:21:46;3.70;99.90
36924;DHT22;22841;50.252;18.688;2023-04-03T16:24:12;3.70;99.90
36924;DHT22;22841;50.252;18.688;2023-04-03T16:26:39;3.70;99.90
36924;DHT22;22841;50.252;18.688;2023-04-03T16:29:05;3.80;99.90
36924;DHT22;22841;50.252;18.688;2023-04-03T16:31:32;3.80;99.90
36924;DHT22;22841;50.252;18.688;2023-04-03T16:34:00;3.80;99.90
36924;DHT22;22841;50.252;18.688;2023-04-03T16:36:26;3.70;99.90
36924;DHT22;22841;50.252;18.688;2023-04-03T16:38:52;3.70;99.90
36924;DHT22;22841;50.252;18.688;2023-04-03T16:41:18;3.70;99.90
36924;DHT22;22841;50.252;18.688;2023-04-03T16:43:44;3.60;99.90
36924;DHT22;22841;50.252;18.688;2023-04-03T16:46:10;3.60;99.90
36924;DHT22;22841;50.252;18.688;2023-04-03T16:48:36;3.60;99.90
36924;DHT22;22841;50.252;18.688;2023-04-03T16:51:02;3.60;99.90
36924;DHT22;22841;50.252;18.688;2023-04-03T16:53:28;3.50;99.90
36924;DHT22;22841;50.252;18.688;2023-04-03T16:55:57;3.50;99.90
36924;DHT22;22841;50.252;18.688;2023-04-03T16:58:23;3.50;99.90
36924;DHT22;22841;50.252;18.688;2023-04-03T17:00:50;3.50;99.90
36924;DHT22;22841;50.252;18.688;2023-04-03T17:03:16;3.50;99.90
36924;DHT22;22841;50.252;18.688;2023-04-03T17:05:42;3.40;99.90
36924;DHT22;22841;50.252;18.688;2023-04-03T17:08:09;3.40;99.90
36924;DHT22;22841;50.252;18.688;2023-04-03T17:10:35;3.30;99.90